sensor_id;sensor_type;location;lat;lon;timestamp;temperature;humidity
48206;DHT22;33995;48.202;16.260;2023-02-26T00:01:26;3.70;99.90
48206;DHT22;33995;48.202;16.260;2023-02-26T00:03:57;3.60;99.90
48206;DHT22;33995;48.202;16.260;2023-02-26T00:06:27;3.80;99.90
48206;DHT22;33995;48.202;16.260;2023-02-26T00:08:56;3.70;99.90
48206;DHT22;33995;48.202;16.260;2023-02-26T00:11:23;3.60;99.90
48206;DHT22;33995;48.202;16.260;2023-02-26T00:13:51;3.80;99.90
48206;DHT22;33995;48.202;16.260;2023-02-26T00:16:31;3.70;99.90
48206;DHT22;33995;48.202;16.260;2023-02-26T00:19:01;3.50;99.90
48206;DHT22;33995;48.202;16.260;2023-02-26T00:21:31;3.60;99.90
48206;DHT22;33995;48.202;16.260;2023-02-26T00:23:58;3.60;99.90
48206;DHT22;33995;48.202;16.260;2023-02-26T00:26:30;3.70;99.90
48206;DHT22;33995;48.202;16.260;2023-02-26T00:28:58;3.70;99.90
48206;DHT22;33995;48.202;16.260;2023-02-26T00:31:26;3.70;99.90
48206;DHT22;33995;48.202;16.260;2023-02-26T00:33:55;3.60;99.90
48206;DHT22;33995;48.202;16.260;2023-02-26T00:36:28;3.60;99.90
48206;DHT22;33995;48.202;16.260;2023-02-26T00:41:31;3.70;99.90
48206;DHT22;33995;48.202;16.260;2023-02-26T00:43:59;3.70;99.90
48206;DHT22;33995;48.202;16.260;2023-02-26T00:51:57;3.60;99.90
48206;DHT22;33995;48.202;16.260;2023-02-26T00:54:26;3.60;99.90
48206;DHT22;33995;48.202;16.260;2023-02-26T00:56:54;3.70;99.90
48206;DHT22;33995;48.202;16.260;2023-02-26T00:59:22;3.70;99.90
48206;DHT22;33995;48.202;16.260;2023-02-26T01:01:50;3.60;99.90
48206;DHT22;33995;48.202;16.260;2023-02-26T01:04:21;3.60;99.90
48206;DHT22;33995;48.202;16.260;2023-02-26T01:06:51;3.60;99.90
48206;DHT22;33995;48.202;16.260;2023-02-26T01:11:55;3.50;99.90
48206;DHT22;33995;48.202;16.260;2023-02-26T01:14:23;3.60;99.90
48206;DHT22;33995;48.202;16.260;2023-02-26T01:17:05;3.40;99.90
48206;DHT22;33995;48.202;16.260;2023-02-26T01:20:10;3.20;99.90
48206;DHT22;33995;48.202;16.260;2023-02-26T01:23:00;3.40;99.90
48206;DHT22;33995;48.202;16.260;2023-02-26T01:25:29;3.30;99.90
48206;DHT22;33995;48.202;16.260;2023-02-26T01:28:02;3.30;99.90
48206;DHT22;33995;48.202;16.260;2023-02-26T01:30:30;3.20;99.90
48206;DHT22;33995;48.202;16.260;2023-02-26T01:32:59;3.10;99.90
48206;DHT22;33995;48.202;16.260;2023-02-26T01:44:03;3.10;99.90
48206;DHT22;33995;48.202;16.260;2023-02-26T01:49:24;3.10;99.90
48206;DHT22;33995;48.202;16.260;2023-02-26T01:51:53;3.10;99.90
48206;DHT22;33995;48.202;16.260;2023-02-26T01:54:29;2.90;99.90
48206;DHT22;33995;48.202;16.260;2023-02-26T01:57:16;2.90;99.90
48206;DHT22;33995;48.202;16.260;2023-02-26T01:59:48;2.90;99.90
48206;DHT22;33995;48.202;16.260;2023-02-26T02:02:23;2.70;99.90
48206;DHT22;33995;48.202;16.260;2023-02-26T02:04:52;2.80;99.90
48206;DHT22;33995;48.202;16.260;2023-02-26T02:07:20;2.90;99.90
48206;DHT22;33995;48.202;16.260;2023-02-26T02:09:47;2.90;99.90
48206;DHT22;33995;48.202;16.260;2023-02-26T02:12:35;2.70;99.90
48206;DHT22;33995;48.202;16.260;2023-02-26T02:24:19;2.90;99.90
48206;DHT22;33995;48.202;16.260;2023-02-26T02:32:09;2.90;99.90
48206;DHT22;33995;48.202;16.260;2023-02-26T02:34:38;2.70;99.90
48206;DHT22;33995;48.202;16.260;2023-02-26T02:37:40;2.70;99.90
48206;DHT22;33995;48.202;16.260;2023-02-26T02:40:19;2.80;99.90
48206;DHT22;33995;48.202;16.260;2023-02-26T02:45:44;2.80;99.90
48206;DHT22;33995;48.202;16.260;2023-02-26T02:48:34;2.70;99.90
48206;DHT22;33995;48.202;16.260;2023-02-26T02:51:20;2.80;99.90
48206;DHT22;33995;48.202;16.260;2023-02-26T02:53:56;2.70;99.90
48206;DHT22;33995;48.202;16.260;2023-02-26T02:56:46;2.70;99.90
48206;DHT22;33995;48.202;16.260;2023-02-26T02:59:42;2.70;99.90
48206;DHT22;33995;48.202;16.260;2023-02-26T03:02:24;2.60;99.90
48206;DHT22;33995;48.202;16.260;2023-02-26T03:04:52;2.70;99.90
48206;DHT22;33995;48.202;16.260;2023-02-26T03:07:23;2.60;99.90
48206;DHT22;33995;48.202;16.260;2023-02-26T03:09:51;2.60;99.90
48206;DHT22;33995;48.202;16.260;2023-02-26T03:12:18;2.60;99.90
48206;DHT22;33995;48.202;16.260;2023-02-26T03:14:46;2.70;99.90
48206;DHT22;33995;48.202;16.260;2023-02-26T03:17:35;2.70;99.90
48206;DHT22;33995;48.202;16.260;2023-02-26T03:25:32;2.60;99.90
48206;DHT22;33995;48.202;16.260;2023-02-26T03:38:48;2.40;99.90
48206;DHT22;33995;48.202;16.260;2023-02-26T03:41:22;2.50;99.90
48206;DHT22;33995;48.202;16.260;2023-02-26T03:44:06;2.60;99.90
48206;DHT22;33995;48.202;16.260;2023-02-26T03:46:38;2.50;99.90
48206;DHT22;33995;48.202;16.260;2023-02-26T03:49:11;2.70;99.90
48206;DHT22;33995;48.202;16.260;2023-02-26T03:51:42;2.60;99.90
48206;DHT22;33995;48.202;16.260;2023-02-26T03:54:48;2.60;99.90
48206;DHT22;33995;48.202;16.260;2023-02-26T03:57:43;2.50;99.90
48206;DHT22;33995;48.202;16.260;2023-02-26T04:00:21;2.50;99.90
48206;DHT22;33995;48.202;16.260;2023-02-26T04:03:09;2.50;99.90
48206;DHT22;33995;48.202;16.260;2023-02-26T04:05:41;2.40;99.90
48206;DHT22;33995;48.202;16.260;2023-02-26T04:08:09;2.40;99.90
48206;DHT22;33995;48.202;16.260;2023-02-26T04:10:41;2.40;99.90
48206;DHT22;33995;48.202;16.260;2023-02-26T04:13:09;2.40;99.90
48206;DHT22;33995;48.202;16.260;2023-02-26T04:15:37;2.40;99.90
48206;DHT22;33995;48.202;16.260;2023-02-26T04:18:05;2.50;99.90
48206;DHT22;33995;48.202;16.260;2023-02-26T04:20:33;2.60;99.90
48206;DHT22;33995;48.202;16.260;2023-02-26T04:23:00;2.60;99.90
48206;DHT22;33995;48.202;16.260;2023-02-26T04:25:29;2.60;99.90
48206;DHT22;33995;48.202;16.260;2023-02-26T04:27:58;2.50;99.90
48206;DHT22;33995;48.202;16.260;2023-02-26T04:30:25;2.50;99.90
48206;DHT22;33995;48.202;16.260;2023-02-26T04:32:53;2.10;99.90
48206;DHT22;33995;48.202;16.260;2023-02-26T04:35:21;2.40;99.90
48206;DHT22;33995;48.202;16.260;2023-02-26T04:37:48;2.50;99.90
48206;DHT22;33995;48.202;16.260;2023-02-26T04:40:15;2.50;99.90
48206;DHT22;33995;48.202;16.260;2023-02-26T04:42:43;2.50;99.90
48206;DHT22;33995;48.202;16.260;2023-02-26T04:45:16;2.50;99.90
48206;DHT22;33995;48.202;16.260;2023-02-26T04:47:45;2.40;99.90
48206;DHT22;33995;48.202;16.260;2023-02-26T04:50:12;2.40;99.90
48206;DHT22;33995;48.202;16.260;2023-02-26T04:52:41;2.40;99.90
48206;DHT22;33995;48.202;16.260;2023-02-26T04:55:08;2.30;99.90
48206;DHT22;33995;48.202;16.260;2023-02-26T04:57:37;2.20;99.90
48206;DHT22;33995;48.202;16.260;2023-02-26T05:00:05;2.30;99.90
48206;DHT22;33995;48.202;16.260;2023-02-26T05:02:37;2.30;99.90
48206;DHT22;33995;48.202;16.260;2023-02-26T05:05:04;2.30;99.90
48206;DHT22;33995;48.202;16.260;2023-02-26T05:07:33;2.30;99.90
48206;DHT22;33995;48.202;16.260;2023-02-26T05:10:00;2.30;99.90
48206;DHT22;33995;48.202;16.260;2023-02-26T05:12:27;2.10;99.90
48206;DHT22;33995;48.202;16.260;2023-02-26T05:14:54;2.20;99.90
48206;DHT22;33995;48.202;16.260;2023-02-26T05:17:22;2.00;99.90
48206;DHT22;33995;48.202;16.260;2023-02-26T05:19:50;2.20;99.90
48206;DHT22;33995;48.202;16.260;2023-02-26T05:22:21;2.10;99.90
48206;DHT22;33995;48.202;16.260;2023-02-26T05:24:48;2.10;99.90
48206;DHT22;33995;48.202;16.260;2023-02-26T05:27:15;2.10;99.90
48206;DHT22;33995;48.202;16.260;2023-02-26T05:29:45;2.00;99.90
48206;DHT22;33995;48.202;16.260;2023-02-26T05:32:13;1.90;99.90
48206;DHT22;33995;48.202;16.260;2023-02-26T05:34:41;1.90;99.90
48206;DHT22;33995;48.202;16.260;2023-02-26T05:37:07;2.00;99.90
48206;DHT22;33995;48.202;16.260;2023-02-26T05:39:34;2.00;99.90
48206;DHT22;33995;48.202;16.260;2023-02-26T05:42:01;2.10;99.90
48206;DHT22;33995;48.202;16.260;2023-02-26T05:44:28;1.70;99.90
48206;DHT22;33995;48.202;16.260;2023-02-26T05:46:55;1.80;99.90
48206;DHT22;33995;48.202;16.260;2023-02-26T05:49:23;1.90;99.90
48206;DHT22;33995;48.202;16.260;2023-02-26T05:51:51;2.00;99.90
48206;DHT22;33995;48.202;16.260;2023-02-26T05:54:18;1.90;99.90
48206;DHT22;33995;48.202;16.260;2023-02-26T05:56:45;2.10;99.90
48206;DHT22;33995;48.202;16.260;2023-02-26T05:59:12;2.10;99.90
48206;DHT22;33995;48.202;16.260;2023-02-26T06:01:39;2.00;99.90
48206;DHT22;33995;48.202;16.260;2023-02-26T06:04:08;2.00;99.90
48206;DHT22;33995;48.202;16.260;2023-02-26T06:06:35;2.00;99.90
48206;DHT22;33995;48.202;16.260;2023-02-26T06:09:03;2.00;99.90
48206;DHT22;33995;48.202;16.260;2023-02-26T06:11:30;2.00;99.90
48206;DHT22;33995;48.202;16.260;2023-02-26T06:14:00;1.90;99.90
48206;DHT22;33995;48.202;16.260;2023-02-26T06:16:28;2.00;99.90
48206;DHT22;33995;48.202;16.260;2023-02-26T06:18:55;2.00;99.90
48206;DHT22;33995;48.202;16.260;2023-02-26T06:21:23;1.90;99.90
48206;DHT22;33995;48.202;16.260;2023-02-26T06:23:50;1.90;99.90
48206;DHT22;33995;48.202;16.260;2023-02-26T06:26:17;1.90;99.90
48206;DHT22;33995;48.202;16.260;2023-02-26T06:28:44;2.00;99.90
48206;DHT22;33995;48.202;16.260;2023-02-26T06:31:11;1.90;99.90
48206;DHT22;33995;48.202;16.260;2023-02-26T06:33:38;1.90;99.90
48206;DHT22;33995;48.202;16.260;2023-02-26T06:36:05;1.90;99.90
48206;DHT22;33995;48.202;16.260;2023-02-26T06:38:33;1.90;99.90
48206;DHT22;33995;48.202;16.260;2023-02-26T06:41:00;2.00;99.90
48206;DHT22;33995;48.202;16.260;2023-02-26T06:43:27;2.00;99.90
48206;DHT22;33995;48.202;16.260;2023-02-26T06:45:57;1.90;99.90
48206;DHT22;33995;48.202;16.260;2023-02-26T06:48:26;2.00;99.90
48206;DHT22;33995;48.202;16.260;2023-02-26T06:50:54;2.00;99.90
48206;DHT22;33995;48.202;16.260;2023-02-26T06:53:21;2.10;99.90
48206;DHT22;33995;48.202;16.260;2023-02-26T06:55:50;2.10;99.90
48206;DHT22;33995;48.202;16.260;2023-02-26T06:58:18;2.20;99.90
48206;DHT22;33995;48.202;16.260;2023-02-26T07:00:47;2.30;99.90
48206;DHT22;33995;48.202;16.260;2023-02-26T07:03:16;2.30;99.90
48206;DHT22;33995;48.202;16.260;2023-02-26T07:05:45;2.20;99.90
48206;DHT22;33995;48.202;16.260;2023-02-26T07:08:13;2.30;99.90
48206;DHT22;33995;48.202;16.260;2023-02-26T07:10:41;2.10;99.90
48206;DHT22;33995;48.202;16.260;2023-02-26T07:13:08;1.90;99.90
48206;DHT22;33995;48.202;16.260;2023-02-26T07:15:35;2.00;99.90
48206;DHT22;33995;48.202;16.260;2023-02-26T07:18:03;2.00;99.90
48206;DHT22;33995;48.202;16.260;2023-02-26T07:20:30;2.20;99.90
48206;DHT22;33995;48.202;16.260;2023-02-26T07:22:58;2.40;99.90
48206;DHT22;33995;48.202;16.260;2023-02-26T07:25:28;2.30;99.90
48206;DHT22;33995;48.202;16.260;2023-02-26T07:27:55;2.30;99.90
48206;DHT22;33995;48.202;16.260;2023-02-26T07:30:24;2.20;99.90
48206;DHT22;33995;48.202;16.260;2023-02-26T07:32:51;2.30;99.90
48206;DHT22;33995;48.202;16.260;2023-02-26T07:35:21;2.40;99.90
48206;DHT22;33995;48.202;16.260;2023-02-26T07:37:48;2.60;99.90
48206;DHT22;33995;48.202;16.260;2023-02-26T07:40:16;2.60;99.90
48206;DHT22;33995;48.202;16.260;2023-02-26T07:42:43;2.70;99.90
48206;DHT22;33995;48.202;16.260;2023-02-26T07:45:10;2.80;99.90
48206;DHT22;33995;48.202;16.260;2023-02-26T07:47:37;2.90;99.90
48206;DHT22;33995;48.202;16.260;2023-02-26T07:50:05;3.00;99.90
48206;DHT22;33995;48.202;16.260;2023-02-26T07:52:32;3.00;99.90
48206;DHT22;33995;48.202;16.260;2023-02-26T07:55:03;3.10;99.90
48206;DHT22;33995;48.202;16.260;2023-02-26T07:57:31;3.00;99.90
48206;DHT22;33995;48.202;16.260;2023-02-26T07:59:58;3.00;99.90
48206;DHT22;33995;48.202;16.260;2023-02-26T08:02:25;3.20;99.90
48206;DHT22;33995;48.202;16.260;2023-02-26T08:04:53;3.30;99.90
48206;DHT22;33995;48.202;16.260;2023-02-26T08:07:20;3.50;99.90
48206;DHT22;33995;48.202;16.260;2023-02-26T08:09:50;3.50;99.90
48206;DHT22;33995;48.202;16.260;2023-02-26T08:12:17;3.30;99.90
48206;DHT22;33995;48.202;16.260;2023-02-26T08:14:44;3.70;99.90
48206;DHT22;33995;48.202;16.260;2023-02-26T08:17:12;3.90;99.90
48206;DHT22;33995;48.202;16.260;2023-02-26T08:19:42;4.10;99.90
48206;DHT22;33995;48.202;16.260;2023-02-26T08:22:09;4.00;99.90
48206;DHT22;33995;48.202;16.260;2023-02-26T08:24:36;4.10;99.90
48206;DHT22;33995;48.202;16.260;2023-02-26T08:27:04;4.20;99.90
48206;DHT22;33995;48.202;16.260;2023-02-26T08:29:31;4.30;99.90
48206;DHT22;33995;48.202;16.260;2023-02-26T08:31:58;4.30;99.90
48206;DHT22;33995;48.202;16.260;2023-02-26T08:34:26;4.00;99.90
48206;DHT22;33995;48.202;16.260;2023-02-26T08:36:53;4.10;99.90
48206;DHT22;33995;48.202;16.260;2023-02-26T08:39:20;4.20;99.90
48206;DHT22;33995;48.202;16.260;2023-02-26T08:41:47;4.40;99.90
48206;DHT22;33995;48.202;16.260;2023-02-26T08:44:14;4.50;99.90
48206;DHT22;33995;48.202;16.260;2023-02-26T08:46:41;4.30;99.90
48206;DHT22;33995;48.202;16.260;2023-02-26T08:49:08;4.40;99.90
48206;DHT22;33995;48.202;16.260;2023-02-26T08:51:35;4.40;99.90
48206;DHT22;33995;48.202;16.260;2023-02-26T08:54:02;4.30;99.90
48206;DHT22;33995;48.202;16.260;2023-02-26T08:56:29;4.20;99.90
48206;DHT22;33995;48.202;16.260;2023-02-26T08:58:57;4.30;99.90
48206;DHT22;33995;48.202;16.260;2023-02-26T09:01:24;4.30;99.90
48206;DHT22;33995;48.202;16.260;2023-02-26T09:03:52;4.40;99.90
48206;DHT22;33995;48.202;16.260;2023-02-26T09:06:19;4.40;99.90
48206;DHT22;33995;48.202;16.260;2023-02-26T09:08:46;4.70;99.90
48206;DHT22;33995;48.202;16.260;2023-02-26T09:11:13;4.50;99.90
48206;DHT22;33995;48.202;16.260;2023-02-26T09:13:40;5.10;99.90
48206;DHT22;33995;48.202;16.260;2023-02-26T09:16:08;5.50;99.90
48206;DHT22;33995;48.202;16.260;2023-02-26T09:18:35;5.70;99.90
48206;DHT22;33995;48.202;16.260;2023-02-26T09:21:03;5.80;99.90
48206;DHT22;33995;48.202;16.260;2023-02-26T09:23:30;5.80;99.90
48206;DHT22;33995;48.202;16.260;2023-02-26T09:25:57;5.60;99.90
48206;DHT22;33995;48.202;16.260;2023-02-26T09:28:25;5.40;99.90
48206;DHT22;33995;48.202;16.260;2023-02-26T09:30:55;5.00;99.90
48206;DHT22;33995;48.202;16.260;2023-02-26T09:33:23;5.00;99.90
48206;DHT22;33995;48.202;16.260;2023-02-26T09:35:51;5.00;99.90
48206;DHT22;33995;48.202;16.260;2023-02-26T09:38:18;4.40;99.90
48206;DHT22;33995;48.202;16.260;2023-02-26T09:40:48;4.30;99.90
48206;DHT22;33995;48.202;16.260;2023-02-26T09:46:08;4.10;99.90
48206;DHT22;33995;48.202;16.260;2023-02-26T09:48:38;4.30;99.90
48206;DHT22;33995;48.202;16.260;2023-02-26T09:51:17;4.10;99.90
48206;DHT22;33995;48.202;16.260;2023-02-26T09:53:48;4.10;99.90
48206;DHT22;33995;48.202;16.260;2023-02-26T09:56:18;4.60;99.90
48206;DHT22;33995;48.202;16.260;2023-02-26T09:58:47;4.90;99.90
48206;DHT22;33995;48.202;16.260;2023-02-26T10:01:24;4.90;99.90
48206;DHT22;33995;48.202;16.260;2023-02-26T10:04:17;5.10;99.90
48206;DHT22;33995;48.202;16.260;2023-02-26T10:12:27;6.00;99.90
48206;DHT22;33995;48.202;16.260;2023-02-26T10:23:21;5.20;99.90
48206;DHT22;33995;48.202;16.260;2023-02-26T10:31:37;5.40;99.90
48206;DHT22;33995;48.202;16.260;2023-02-26T10:34:23;5.60;99.90
48206;DHT22;33995;48.202;16.260;2023-02-26T10:40:16;5.50;99.90
48206;DHT22;33995;48.202;16.260;2023-02-26T10:43:09;5.20;99.90
48206;DHT22;33995;48.202;16.260;2023-02-26T10:48:52;5.80;99.90
48206;DHT22;33995;48.202;16.260;2023-02-26T10:51:34;5.80;99.90
48206;DHT22;33995;48.202;16.260;2023-02-26T10:56:48;4.90;99.90
48206;DHT22;33995;48.202;16.260;2023-02-26T10:59:15;4.90;99.90
48206;DHT22;33995;48.202;16.260;2023-02-26T11:01:44;4.80;99.90
48206;DHT22;33995;48.202;16.260;2023-02-26T11:04:15;4.70;99.90
48206;DHT22;33995;48.202;16.260;2023-02-26T11:06:58;4.70;99.90
48206;DHT22;33995;48.202;16.260;2023-02-26T11:09:33;4.70;99.90
48206;DHT22;33995;48.202;16.260;2023-02-26T11:12:15;4.40;99.90
48206;DHT22;33995;48.202;16.260;2023-02-26T11:14:46;4.90;99.90
48206;DHT22;33995;48.202;16.260;2023-02-26T11:17:26;5.20;99.90
48206;DHT22;33995;48.202;16.260;2023-02-26T11:20:16;5.00;99.90
48206;DHT22;33995;48.202;16.260;2023-02-26T11:22:51;4.60;99.90
48206;DHT22;33995;48.202;16.260;2023-02-26T11:25:26;4.50;99.90
48206;DHT22;33995;48.202;16.260;2023-02-26T11:28:02;4.30;99.90
48206;DHT22;33995;48.202;16.260;2023-02-26T11:30:35;4.10;99.90
48206;DHT22;33995;48.202;16.260;2023-02-26T11:33:15;4.00;99.90
48206;DHT22;33995;48.202;16.260;2023-02-26T11:35:45;4.10;99.90
48206;DHT22;33995;48.202;16.260;2023-02-26T11:38:25;4.30;99.90
48206;DHT22;33995;48.202;16.260;2023-02-26T11:40:55;4.60;99.90
48206;DHT22;33995;48.202;16.260;2023-02-26T11:43:25;5.30;99.90
48206;DHT22;33995;48.202;16.260;2023-02-26T11:46:00;6.20;99.90
48206;DHT22;33995;48.202;16.260;2023-02-26T11:48:45;6.30;99.90
48206;DHT22;33995;48.202;16.260;2023-02-26T11:51:18;6.60;99.90
48206;DHT22;33995;48.202;16.260;2023-02-26T11:53:55;6.90;99.90
48206;DHT22;33995;48.202;16.260;2023-02-26T11:56:30;7.70;99.90
48206;DHT22;33995;48.202;16.260;2023-02-26T11:59:05;7.40;99.90
48206;DHT22;33995;48.202;16.260;2023-02-26T12:01:35;7.00;99.90
48206;DHT22;33995;48.202;16.260;2023-02-26T12:04:03;6.20;99.90
48206;DHT22;33995;48.202;16.260;2023-02-26T12:06:30;6.10;99.90
48206;DHT22;33995;48.202;16.260;2023-02-26T12:08:57;5.90;99.90
48206;DHT22;33995;48.202;16.260;2023-02-26T12:20:26;4.00;99.90
48206;DHT22;33995;48.202;16.260;2023-02-26T12:23:21;3.70;99.90
48206;DHT22;33995;48.202;16.260;2023-02-26T12:43:44;5.10;99.90
48206;DHT22;33995;48.202;16.260;2023-02-26T12:46:59;5.00;99.90
48206;DHT22;33995;48.202;16.260;2023-02-26T13:01:19;7.00;99.90
48206;DHT22;33995;48.202;16.260;2023-02-26T13:06:46;6.70;99.90
48206;DHT22;33995;48.202;16.260;2023-02-26T13:20:27;5.20;99.90
48206;DHT22;33995;48.202;16.260;2023-02-26T13:23:11;5.30;99.90
48206;DHT22;33995;48.202;16.260;2023-02-26T13:25:43;5.30;99.90
48206;DHT22;33995;48.202;16.260;2023-02-26T13:28:34;5.30;99.90
48206;DHT22;33995;48.202;16.260;2023-02-26T13:31:16;5.20;99.90
48206;DHT22;33995;48.202;16.260;2023-02-26T13:33:51;5.10;99.90
48206;DHT22;33995;48.202;16.260;2023-02-26T13:36:23;5.10;99.90
48206;DHT22;33995;48.202;16.260;2023-02-26T13:42:20;4.90;99.90
48206;DHT22;33995;48.202;16.260;2023-02-26T13:48:03;4.60;99.90
48206;DHT22;33995;48.202;16.260;2023-02-26T13:51:08;4.70;99.90
48206;DHT22;33995;48.202;16.260;2023-02-26T13:56:47;3.80;99.90
48206;DHT22;33995;48.202;16.260;2023-02-26T14:01:47;3.70;99.90
48206;DHT22;33995;48.202;16.260;2023-02-26T14:07:11;3.60;99.90
48206;DHT22;33995;48.202;16.260;2023-02-26T14:09:46;3.60;99.90
48206;DHT22;33995;48.202;16.260;2023-02-26T14:12:34;3.70;99.90
48206;DHT22;33995;48.202;16.260;2023-02-26T14:15:26;3.70;99.90
48206;DHT22;33995;48.202;16.260;2023-02-26T14:18:03;3.90;99.90
48206;DHT22;33995;48.202;16.260;2023-02-26T14:20:34;4.00;99.90
48206;DHT22;33995;48.202;16.260;2023-02-26T14:25:55;4.10;99.90
48206;DHT22;33995;48.202;16.260;2023-02-26T14:28:42;4.20;99.90
48206;DHT22;33995;48.202;16.260;2023-02-26T14:33:58;4.00;99.90
48206;DHT22;33995;48.202;16.260;2023-02-26T14:39:28;4.10;99.90
48206;DHT22;33995;48.202;16.260;2023-02-26T14:42:07;4.20;99.90
48206;DHT22;33995;48.202;16.260;2023-02-26T14:44:44;4.20;99.90
48206;DHT22;33995;48.202;16.260;2023-02-26T14:47:16;4.30;99.90
48206;DHT22;33995;48.202;16.260;2023-02-26T14:49:48;4.20;99.90
48206;DHT22;33995;48.202;16.260;2023-02-26T14:58:31;4.10;99.90
48206;DHT22;33995;48.202;16.260;2023-02-26T15:07:19;4.10;99.90
48206;DHT22;33995;48.202;16.260;2023-02-26T15:24:24;3.60;99.90
48206;DHT22;33995;48.202;16.260;2023-02-26T15:26:56;3.70;99.90
48206;DHT22;33995;48.202;16.260;2023-02-26T15:29:33;3.70;99.90
48206;DHT22;33995;48.202;16.260;2023-02-26T15:32:21;3.50;99.90
48206;DHT22;33995;48.202;16.260;2023-02-26T15:35:06;3.40;99.90
48206;DHT22;33995;48.202;16.260;2023-02-26T15:37:40;3.40;99.90
48206;DHT22;33995;48.202;16.260;2023-02-26T15:40:08;3.40;99.90
48206;DHT22;33995;48.202;16.260;2023-02-26T15:42:40;3.30;99.90
48206;DHT22;33995;48.202;16.260;2023-02-26T15:45:19;3.40;99.90
48206;DHT22;33995;48.202;16.260;2023-02-26T15:47:55;3.30;99.90
48206;DHT22;33995;48.202;16.260;2023-02-26T15:50:31;3.40;99.90
48206;DHT22;33995;48.202;16.260;2023-02-26T15:53:05;3.30;99.90
48206;DHT22;33995;48.202;16.260;2023-02-26T15:55:46;3.10;99.90
48206;DHT22;33995;48.202;16.260;2023-02-26T16:01:24;3.30;99.90
48206;DHT22;33995;48.202;16.260;2023-02-26T16:03:57;3.30;99.90
48206;DHT22;33995;48.202;16.260;2023-02-26T16:06:45;3.30;99.90
48206;DHT22;33995;48.202;16.260;2023-02-26T16:09:23;3.30;99.90
48206;DHT22;33995;48.202;16.260;2023-02-26T16:11:54;3.00;99.90
48206;DHT22;33995;48.202;16.260;2023-02-26T16:14:31;3.20;99.90
48206;DHT22;33995;48.202;16.260;2023-02-26T16:17:10;3.20;99.90
48206;DHT22;33995;48.202;16.260;2023-02-26T16:19:44;3.20;99.90
48206;DHT22;33995;48.202;16.260;2023-02-26T16:22:24;3.20;99.90
48206;DHT22;33995;48.202;16.260;2023-02-26T16:25:14;3.00;99.90
48206;DHT22;33995;48.202;16.260;2023-02-26T16:27:48;3.10;99.90
48206;DHT22;33995;48.202;16.260;2023-02-26T16:30:23;3.00;99.90
48206;DHT22;33995;48.202;16.260;2023-02-26T16:32:54;2.90;99.90
48206;DHT22;33995;48.202;16.260;2023-02-26T16:35:30;2.90;99.90
48206;DHT22;33995;48.202;16.260;2023-02-26T16:38:11;3.00;99.90
48206;DHT22;33995;48.202;16.260;2023-02-26T16:40:44;3.00;99.90
48206;DHT22;33995;48.202;16.260;2023-02-26T16:45:54;2.80;99.90
48206;DHT22;33995;48.202;16.260;2023-02-26T16:51:42;3.00;99.90
48206;DHT22;33995;48.202;16.260;2023-02-26T16:54:20;3.00;99.90
48206;DHT22;33995;48.202;16.260;2023-02-26T16:57:17;2.80;99.90
48206;DHT22;33995;48.202;16.260;2023-02-26T16:59:55;2.80;99.90
48206;DHT22;33995;48.202;16.260;2023-02-26T17:02:32;2.90;99.90
48206;DHT22;33995;48.202;16.260;2023-02-26T17:05:25;2.80;99.90
48206;DHT22;33995;48.202;16.260;2023-02-26T17:08:08;2.80;99.90
48206;DHT22;33995;48.202;16.260;2023-02-26T17:10:46;2.80;99.90
48206;DHT22;33995;48.202;16.260;2023-02-26T17:13:17;2.90;99.90
48206;DHT22;33995;48.202;16.260;2023-02-26T17:15:46;2.80;99.90
48206;DHT22;33995;48.202;16.260;2023-02-26T17:18:17;2.70;99.90
48206;DHT22;33995;48.202;16.260;2023-02-26T17:20:46;2.70;99.90
48206;DHT22;33995;48.202;16.260;2023-02-26T17:23:30;2.80;99.90
48206;DHT22;33995;48.202;16.260;2023-02-26T17:25:59;2.70;99.90
48206;DHT22;33995;48.202;16.260;2023-02-26T17:28:35;2.70;99.90
48206;DHT22;33995;48.202;16.260;2023-02-26T17:31:03;2.80;99.90
48206;DHT22;33995;48.202;16.260;2023-02-26T17:33:40;2.60;99.90
48206;DHT22;33995;48.202;16.260;2023-02-26T17:36:13;2.70;99.90
48206;DHT22;33995;48.202;16.260;2023-02-26T17:38:44;2.70;99.90
48206;DHT22;33995;48.202;16.260;2023-02-26T17:41:18;2.80;99.90
48206;DHT22;33995;48.202;16.260;2023-02-26T17:43:47;2.60;99.90
48206;DHT22;33995;48.202;16.260;2023-02-26T17:46:17;2.70;99.90
48206;DHT22;33995;48.202;16.260;2023-02-26T17:48:46;2.70;99.90
48206;DHT22;33995;48.202;16.260;2023-02-26T17:51:15;2.70;99.90
48206;DHT22;33995;48.202;16.260;2023-02-26T17:53:45;2.80;99.90
48206;DHT22;33995;48.202;16.260;2023-02-26T17:56:19;2.80;99.90
48206;DHT22;33995;48.202;16.260;2023-02-26T17:58:54;2.70;99.90
48206;DHT22;33995;48.202;16.260;2023-02-26T18:01:24;2.70;99.90
48206;DHT22;33995;48.202;16.260;2023-02-26T18:03:58;2.70;99.90
48206;DHT22;33995;48.202;16.260;2023-02-26T18:06:35;2.70;99.90
48206;DHT22;33995;48.202;16.260;2023-02-26T18:09:05;2.70;99.90
48206;DHT22;33995;48.202;16.260;2023-02-26T18:11:35;2.70;99.90
48206;DHT22;33995;48.202;16.260;2023-02-26T18:14:03;2.70;99.90
48206;DHT22;33995;48.202;16.260;2023-02-26T18:16:37;2.70;99.90
48206;DHT22;33995;48.202;16.260;2023-02-26T18:19:12;2.70;99.90
48206;DHT22;33995;48.202;16.260;2023-02-26T18:21:50;2.60;99.90
48206;DHT22;33995;48.202;16.260;2023-02-26T18:24:18;2.70;99.90
48206;DHT22;33995;48.202;16.260;2023-02-26T18:26:46;2.70;99.90
48206;DHT22;33995;48.202;16.260;2023-02-26T18:29:14;2.50;99.90
48206;DHT22;33995;48.202;16.260;2023-02-26T18:31:43;2.70;99.90
48206;DHT22;33995;48.202;16.260;2023-02-26T18:34:11;2.60;99.90
48206;DHT22;33995;48.202;16.260;2023-02-26T18:36:40;2.70;99.90
48206;DHT22;33995;48.202;16.260;2023-02-26T18:39:11;2.50;99.90
48206;DHT22;33995;48.202;16.260;2023-02-26T18:41:41;2.60;99.90
48206;DHT22;33995;48.202;16.260;2023-02-26T18:44:13;2.50;99.90
48206;DHT22;33995;48.202;16.260;2023-02-26T18:46:42;2.50;99.90
48206;DHT22;33995;48.202;16.260;2023-02-26T18:49:19;2.30;99.90
48206;DHT22;33995;48.202;16.260;2023-02-26T18:51:48;2.40;99.90
48206;DHT22;33995;48.202;16.260;2023-02-26T18:54:16;2.40;99.90
48206;DHT22;33995;48.202;16.260;2023-02-26T18:56:45;2.40;99.90
48206;DHT22;33995;48.202;16.260;2023-02-26T18:59:14;2.40;99.90
48206;DHT22;33995;48.202;16.260;2023-02-26T19:01:42;2.40;99.90
48206;DHT22;33995;48.202;16.260;2023-02-26T19:04:10;2.40;99.90
48206;DHT22;33995;48.202;16.260;2023-02-26T19:06:39;2.40;99.90
48206;DHT22;33995;48.202;16.260;2023-02-26T19:09:08;2.50;99.90
48206;DHT22;33995;48.202;16.260;2023-02-26T19:11:36;2.50;99.90
48206;DHT22;33995;48.202;16.260;2023-02-26T19:14:07;2.50;99.90
48206;DHT22;33995;48.202;16.260;2023-02-26T19:16:37;2.40;99.90
48206;DHT22;33995;48.202;16.260;2023-02-26T19:19:12;2.40;99.90
48206;DHT22;33995;48.202;16.260;2023-02-26T19:21:43;2.50;99.90